createdAt,value
2023-04-02T00:00:33.742Z,24.48
2023-04-02T00:03:04.480Z,15.18
2023-04-02T00:05:51.002Z,10.07
2023-04-02T00:08:25.367Z,10.18
2023-04-02T00:10:56.115Z,6.88
2023-04-02T00:13:27.513Z,7.75
2023-04-02T00:15:58.850Z,5.88
2023-04-02T00:18:29.177Z,7.28
2023-04-02T00:21:03.413Z,6.45
2023-04-02T00:23:35.741Z,8.00
2023-04-02T00:26:09.123Z,8.80
2023-04-02T00:28:38.820Z,10.27
2023-04-02T00:31:08.595Z,12.85
2023-04-02T00:33:38.308Z,11.70
2023-04-02T00:36:08.928Z,13.68
2023-04-02T00:38:44.261Z,11.95
2023-04-02T00:41:18.051Z,14.43
2023-04-02T00:43:50.936Z,19.48
2023-04-02T00:46:24.471Z,21.73
2023-04-02T00:48:57.232Z,32.13
2023-04-02T00:51:29.084Z,31.90
2023-04-02T00:54:03.476Z,31.23
2023-04-02T00:56:35.689Z,48.60
2023-04-02T00:59:05.590Z,42.50
2023-04-02T01:01:42.767Z,33.47
2023-04-02T01:04:29.056Z,33.42
2023-04-02T01:06:59.928Z,31.77
2023-04-02T01:09:41.212Z,35.13
2023-04-02T01:12:25.067Z,34.97
2023-04-02T01:14:59.638Z,34.00
2023-04-02T01:17:50.424Z,33.28
2023-04-02T01:20:41.951Z,35.40
2023-04-02T01:23:14.500Z,29.48
2023-04-02T01:25:49.322Z,36.75
2023-04-02T01:28:22.455Z,36.00
2023-04-02T01:30:56.113Z,37.63
2023-04-02T01:33:26.512Z,38.15
2023-04-02T01:35:58.555Z,31.80
2023-04-02T01:38:30.336Z,25.33
2023-04-02T01:41:04.029Z,27.38
2023-04-02T01:43:38.000Z,29.33
2023-04-02T01:46:26.742Z,32.13
2023-04-02T01:48:56.803Z,29.63
2023-04-02T01:51:29.320Z,25.63
2023-04-02T01:54:02.371Z,28.48
2023-04-02T01:56:33.030Z,30.02
2023-04-02T01:59:04.211Z,26.77
2023-04-02T02:01:41.130Z,22.67
2023-04-02T02:04:14.806Z,22.45
2023-04-02T02:06:44.665Z,21.73
2023-04-02T02:09:17.347Z,24.33
2023-04-02T02:11:47.202Z,24.00
2023-04-02T02:14:18.833Z,23.25
2023-04-02T02:16:53.652Z,22.75
2023-04-02T02:19:26.565Z,18.70
2023-04-02T02:21:57.090Z,15.95
2023-04-02T02:24:28.492Z,20.80
2023-04-02T02:27:07.196Z,18.45
2023-04-02T02:29:40.175Z,15.02
2023-04-02T02:32:13.927Z,15.95
2023-04-02T02:34:49.058Z,21.10
2023-04-02T02:37:21.017Z,15.20
2023-04-02T02:39:52.923Z,15.45
2023-04-02T02:42:27.495Z,14.40
2023-04-02T02:44:59.358Z,18.73
2023-04-02T02:47:32.376Z,15.07
2023-04-02T02:50:06.300Z,16.25
2023-04-02T02:52:39.210Z,17.77
2023-04-02T02:55:14.912Z,16.70
2023-04-02T02:58:04.625Z,18.33
2023-04-02T03:00:40.892Z,18.10
2023-04-02T03:03:15.110Z,20.00
2023-04-02T03:05:45.139Z,18.20
2023-04-02T03:08:25.048Z,18.42
2023-04-02T03:10:57.485Z,20.40
2023-04-02T03:13:30.372Z,17.83
2023-04-02T03:16:03.430Z,23.08
2023-04-02T03:18:40.928Z,17.45
2023-04-02T03:21:16.631Z,18.65
2023-04-02T03:23:47.528Z,16.80
2023-04-02T03:26:21.176Z,15.38
2023-04-02T03:28:53.397Z,14.65
2023-04-02T03:31:26.743Z,14.00
2023-04-02T03:34:02.252Z,15.85
2023-04-02T03:36:34.811Z,15.25
2023-04-02T03:39:08.530Z,14.10
2023-04-02T03:41:43.329Z,14.35
2023-04-02T03:44:22.463Z,10.75
2023-04-02T03:46:57.505Z,13.80
2023-04-02T03:49:36.489Z,15.40
2023-04-02T03:52:08.298Z,15.00
2023-04-02T03:54:40.354Z,15.23
2023-04-02T03:57:28.273Z,15.05
2023-04-02T04:00:01.336Z,11.52
2023-04-02T04:02:38.245Z,15.68
2023-04-02T04:05:21.238Z,12.93
2023-04-02T04:07:53.165Z,14.35
2023-04-02T04:10:25.472Z,15.32
2023-04-02T04:12:57.336Z,17.42
2023-04-02T04:15:29.861Z,13.30
2023-04-02T04:18:02.654Z,11.73
2023-04-02T04:20:46.360Z,11.57
2023-04-02T04:23:26.001Z,16.00
2023-04-02T04:26:02.109Z,13.88
2023-04-02T04:28:38.627Z,15.60
2023-04-02T04:31:18.220Z,12.20
2023-04-02T04:33:55.259Z,11.23
2023-04-02T04:36:32.052Z,18.67
2023-04-02T04:39:09.834Z,14.55
2023-04-02T04:41:41.809Z,18.10
2023-04-02T04:44:17.393Z,16.38
2023-04-02T04:46:52.427Z,19.10
2023-04-02T04:49:27.216Z,20.00
2023-04-02T04:52:01.581Z,12.45
2023-04-02T04:54:31.570Z,16.48
2023-04-02T04:57:04.020Z,11.82
2023-04-02T04:59:36.194Z,11.30
2023-04-02T05:02:07.921Z,10.70
2023-04-02T05:04:40.569Z,9.13
2023-04-02T05:07:18.617Z,6.45
2023-04-02T05:09:55.041Z,7.97
2023-04-02T05:12:34.892Z,8.23
2023-04-02T05:15:09.330Z,10.07
2023-04-02T05:17:41.174Z,11.27
2023-04-02T05:20:16.553Z,8.13
2023-04-02T05:22:56.174Z,8.35
2023-04-02T05:25:28.797Z,7.80
2023-04-02T05:28:06.484Z,6.95
2023-04-02T05:30:46.742Z,6.50
2023-04-02T05:33:21.069Z,5.70
2023-04-02T05:35:53.983Z,7.18
2023-04-02T05:38:28.957Z,8.85
2023-04-02T05:41:03.101Z,8.75
2023-04-02T05:43:35.763Z,9.70
2023-04-02T05:46:09.949Z,7.60
2023-04-02T05:48:43.536Z,9.90
2023-04-02T05:51:20.414Z,8.68
2023-04-02T05:53:54.496Z,9.05
2023-04-02T05:56:27.040Z,9.05
2023-04-02T05:58:59.467Z,14.27
2023-04-02T06:01:36.552Z,9.60
2023-04-02T06:04:16.554Z,7.55
2023-04-02T06:06:51.156Z,8.60
2023-04-02T06:09:27.833Z,10.90
2023-04-02T06:12:13.702Z,10.32
2023-04-02T06:14:44.104Z,9.30
2023-04-02T06:17:16.376Z,7.40
2023-04-02T06:19:46.228Z,10.82
2023-04-02T06:22:22.004Z,7.65
2023-04-02T06:24:58.806Z,10.20
2023-04-02T06:27:29.327Z,7.60
2023-04-02T06:30:03.900Z,7.05
2023-04-02T06:32:35.005Z,10.73
2023-04-02T06:35:05.412Z,8.10
2023-04-02T06:37:36.511Z,7.18
2023-04-02T06:40:29.135Z,7.53
2023-04-02T06:43:00.487Z,10.18
2023-04-02T06:45:38.769Z,7.03
2023-04-02T06:48:20.333Z,10.50
2023-04-02T06:50:58.314Z,9.75
2023-04-02T06:53:29.508Z,7.20
2023-04-02T06:56:05.971Z,9.90
2023-04-02T06:58:37.330Z,8.18
2023-04-02T07:01:07.423Z,10.77
2023-04-02T07:03:45.096Z,10.13
2023-04-02T07:06:25.089Z,10.20
2023-04-02T07:08:57.317Z,6.25
2023-04-02T07:11:30.781Z,7.95
2023-04-02T07:14:03.633Z,6.82
2023-04-02T07:16:36.837Z,9.13
2023-04-02T07:19:06.891Z,8.40
2023-04-02T07:21:38.927Z,10.80
2023-04-02T07:24:09.492Z,10.93
2023-04-02T07:26:42.080Z,10.52
2023-04-02T07:29:12.359Z,10.00
2023-04-02T07:31:42.649Z,11.20
2023-04-02T07:34:12.479Z,12.57
2023-04-02T07:36:42.164Z,14.32
2023-04-02T07:39:12.443Z,10.52
2023-04-02T07:41:56.903Z,11.20
2023-04-02T07:44:29.288Z,18.83
2023-04-02T07:46:59.053Z,15.57
2023-04-02T07:49:28.835Z,16.77
2023-04-02T07:51:58.525Z,23.20
2023-04-02T07:54:28.500Z,19.80
2023-04-02T07:56:58.177Z,20.80
2023-04-02T07:59:30.498Z,16.45
2023-04-02T08:02:00.414Z,19.40
2023-04-02T08:04:30.176Z,18.73
2023-04-02T08:07:00.106Z,19.10
2023-04-02T08:09:29.796Z,16.08
2023-04-02T08:11:59.515Z,33.45
2023-04-02T08:14:31.810Z,28.98
2023-04-02T08:17:01.909Z,30.13
2023-04-02T08:19:32.729Z,22.50
2023-04-02T08:22:04.747Z,21.95
2023-04-02T08:24:34.432Z,16.27
2023-04-02T08:27:05.093Z,15.95
2023-04-02T08:29:37.417Z,16.75
2023-04-02T08:32:07.763Z,17.95
2023-04-02T08:34:37.457Z,20.77
2023-04-02T08:37:08.014Z,18.10
2023-04-02T08:39:37.749Z,19.58
2023-04-02T08:42:10.734Z,14.57
2023-04-02T08:44:52.002Z,14.40
2023-04-02T08:47:22.159Z,14.32
2023-04-02T08:49:53.761Z,21.77
2023-04-02T08:52:25.213Z,12.05
2023-04-02T08:54:56.475Z,15.88
2023-04-02T08:57:31.462Z,12.45
2023-04-02T09:00:10.929Z,16.55
2023-04-02T09:05:18.779Z,18.50
2023-04-02T09:07:49.413Z,12.67
2023-04-02T09:10:20.001Z,12.00
2023-04-02T09:12:53.822Z,17.65
2023-04-02T09:15:31.900Z,17.50
2023-04-02T09:18:04.053Z,13.32
2023-04-02T09:20:33.781Z,14.05
2023-04-02T09:23:03.485Z,13.57
2023-04-02T09:25:34.494Z,12.10
2023-04-02T09:28:06.001Z,14.07
2023-04-02T09:30:44.869Z,13.23
2023-04-02T09:33:14.723Z,14.23
2023-04-02T09:35:58.067Z,17.48
2023-04-02T09:38:30.909Z,15.13
2023-04-02T09:41:02.376Z,14.88
2023-04-02T09:43:33.165Z,13.48
2023-04-02T09:46:06.552Z,13.38
2023-04-02T09:48:37.097Z,12.18
2023-04-02T09:51:17.271Z,16.75
2023-04-02T09:53:49.489Z,15.32
2023-04-02T09:56:21.948Z,11.63
2023-04-02T09:59:05.569Z,15.93
2023-04-02T10:01:39.027Z,15.18
2023-04-02T10:04:09.845Z,13.40
2023-04-02T10:06:39.623Z,13.98
2023-04-02T10:09:30.747Z,9.80
2023-04-02T10:12:01.919Z,13.98
2023-04-02T10:14:33.444Z,10.93
2023-04-02T10:17:10.600Z,13.75
2023-04-02T10:19:41.767Z,13.48
2023-04-02T10:22:15.946Z,12.00
2023-04-02T10:24:45.804Z,12.77
2023-04-02T10:27:22.704Z,13.43
2023-04-02T10:29:58.464Z,7.63
2023-04-02T10:32:33.082Z,12.00
2023-04-02T10:35:04.921Z,8.35
2023-04-02T10:37:49.840Z,7.40
2023-04-02T10:40:22.220Z,9.30
2023-04-02T10:42:55.857Z,10.23
2023-04-02T10:45:34.199Z,10.20
2023-04-02T10:48:09.444Z,10.20
2023-04-02T10:50:44.912Z,15.07
2023-04-02T10:53:17.452Z,14.00
2023-04-02T10:55:48.521Z,11.00
2023-04-02T10:58:22.847Z,12.98
2023-04-02T11:00:53.637Z,13.75
2023-04-02T11:03:32.280Z,12.13
2023-04-02T11:06:04.086Z,10.73
2023-04-02T11:08:39.244Z,14.07
2023-04-02T11:11:12.195Z,11.57
2023-04-02T11:13:48.534Z,10.52
2023-04-02T11:16:18.327Z,12.48
2023-04-02T11:19:02.916Z,9.93
2023-04-02T11:21:57.385Z,11.05
2023-04-02T11:24:43.746Z,9.85
2023-04-02T11:27:20.877Z,11.70
2023-04-02T11:29:52.247Z,12.07
2023-04-02T11:32:33.952Z,9.80
2023-04-02T11:35:07.462Z,10.10
2023-04-02T11:37:42.943Z,8.10
2023-04-02T11:40:27.411Z,11.07
2023-04-02T11:42:57.116Z,8.70
2023-04-02T11:45:52.014Z,9.88
2023-04-02T11:48:34.083Z,9.68
2023-04-02T11:51:05.661Z,11.18
2023-04-02T11:53:38.715Z,10.60
2023-04-02T11:56:10.277Z,8.77
2023-04-02T11:59:03.309Z,8.07
2023-04-02T12:01:38.876Z,9.15
2023-04-02T12:04:13.918Z,12.55
2023-04-02T12:06:52.654Z,10.40
2023-04-02T12:09:25.639Z,9.60
2023-04-02T12:11:56.613Z,9.95
2023-04-02T12:14:35.763Z,11.52
2023-04-02T12:17:09.309Z,9.00
2023-04-02T12:19:39.776Z,11.23
2023-04-02T12:22:18.067Z,6.50
2023-04-02T12:24:50.932Z,8.10
2023-04-02T12:27:22.813Z,9.82
2023-04-02T12:29:52.902Z,11.48
2023-04-02T12:32:24.912Z,10.43
2023-04-02T12:34:55.968Z,10.88
2023-04-02T12:37:27.250Z,11.60
2023-04-02T12:40:01.449Z,12.40
2023-04-02T12:42:35.359Z,12.40
2023-04-02T12:45:05.749Z,12.60
2023-04-02T12:47:36.647Z,11.98
2023-04-02T12:50:07.142Z,11.35
2023-04-02T12:52:36.980Z,15.20
2023-04-02T12:55:09.953Z,10.43
2023-04-02T12:57:46.180Z,11.20
2023-04-02T13:00:36.260Z,10.90
2023-04-02T13:03:20.535Z,10.38
2023-04-02T13:05:52.751Z,11.55
2023-04-02T13:08:23.500Z,11.07
2023-04-02T13:11:00.593Z,7.97
2023-04-02T13:13:33.083Z,14.07
2023-04-02T13:16:03.856Z,9.05
2023-04-02T13:18:34.972Z,13.05
2023-04-02T13:21:05.669Z,12.18
2023-04-02T13:23:37.165Z,10.07
2023-04-02T13:26:19.001Z,8.35
2023-04-02T13:28:58.401Z,9.30
2023-04-02T13:36:29.559Z,6.55
2023-04-02T13:38:59.332Z,6.88
2023-04-02T13:41:32.760Z,7.45
2023-04-02T13:44:03.603Z,8.90
2023-04-02T13:46:34.189Z,7.13
2023-04-02T13:49:04.560Z,9.20
2023-04-02T13:51:37.462Z,11.23
2023-04-02T13:54:08.459Z,8.90
2023-04-02T13:56:41.473Z,10.38
2023-04-02T13:59:11.660Z,7.57
2023-04-02T14:01:41.913Z,10.05
2023-04-02T14:04:12.447Z,11.75
2023-04-02T14:06:59.794Z,10.68
2023-04-02T14:09:33.777Z,11.60
2023-04-02T14:12:09.133Z,7.30
2023-04-02T14:14:49.262Z,10.75
2023-04-02T14:17:23.944Z,8.90
2023-04-02T14:19:59.301Z,11.57
2023-04-02T14:22:34.381Z,12.38
2023-04-02T14:25:07.848Z,11.05
2023-04-02T14:27:43.962Z,8.98
2023-04-02T14:30:18.477Z,10.90
2023-04-02T14:32:55.054Z,11.68
2023-04-02T14:35:26.022Z,10.85
2023-04-02T14:37:58.044Z,10.10
2023-04-02T14:40:30.073Z,9.70
2023-04-02T14:43:04.767Z,8.48
2023-04-02T14:45:43.250Z,12.35
2023-04-02T14:48:19.529Z,14.77
2023-04-02T14:50:49.442Z,8.93
2023-04-02T14:53:22.806Z,10.63
2023-04-02T14:55:55.041Z,14.02
2023-04-02T14:58:29.292Z,11.23
2023-04-02T15:01:00.818Z,11.32
2023-04-02T15:03:32.234Z,11.48
2023-04-02T15:06:03.201Z,12.13
2023-04-02T15:08:35.442Z,10.48
2023-04-02T15:11:08.488Z,10.40
2023-04-02T15:13:44.232Z,11.52
2023-04-02T15:16:16.284Z,10.68
2023-04-02T15:18:46.032Z,10.05
2023-04-02T15:21:29.699Z,10.60
2023-04-02T15:24:03.561Z,10.48
2023-04-02T15:26:38.576Z,10.25
2023-04-02T15:29:27.830Z,10.35
2023-04-02T15:45:26.173Z,11.25
2023-04-02T15:48:16.289Z,14.88
2023-04-02T15:50:50.773Z,14.02
2023-04-02T15:53:34.789Z,9.30
2023-04-02T15:56:15.105Z,11.38
2023-04-02T15:59:05.984Z,12.93
2023-04-02T16:01:44.861Z,10.40
2023-04-02T16:04:40.663Z,11.38
2023-04-02T16:18:40.701Z,11.05
2023-04-02T16:21:10.730Z,11.65
2023-04-02T16:23:41.455Z,12.25
2023-04-02T16:26:19.288Z,11.38
2023-04-02T16:28:52.490Z,12.88
2023-04-02T16:31:24.842Z,13.70
2023-04-02T16:34:02.649Z,10.98
2023-04-02T16:36:42.100Z,9.55
2023-04-02T16:41:49.519Z,8.43
2023-04-02T16:44:25.173Z,8.20
2023-04-02T16:46:58.173Z,12.30
2023-04-02T16:49:36.328Z,10.98
2023-04-02T16:52:13.501Z,10.35
2023-04-02T16:54:48.022Z,11.90
2023-04-02T16:57:26.214Z,9.07
2023-04-02T17:00:00.185Z,12.38
2023-04-02T17:02:36.083Z,14.68
2023-04-02T17:05:12.995Z,9.32
2023-04-02T17:07:46.883Z,11.38
2023-04-02T17:10:30.424Z,11.50
2023-04-02T17:13:05.148Z,10.65
2023-04-02T17:15:38.319Z,13.70
2023-04-02T17:18:12.944Z,10.45
2023-04-02T17:20:45.426Z,10.27
2023-04-02T17:23:16.439Z,10.50
2023-04-02T17:25:49.646Z,13.45
2023-04-02T17:28:25.587Z,10.68
2023-04-02T17:30:56.856Z,9.23
2023-04-02T17:33:28.673Z,10.98
2023-04-02T17:36:16.480Z,8.52
2023-04-02T17:38:48.889Z,7.78
2023-04-02T17:41:22.726Z,9.65
2023-04-02T17:43:55.672Z,8.88
2023-04-02T17:46:30.017Z,15.30
2023-04-02T17:49:03.685Z,9.35
2023-04-02T17:51:38.434Z,13.93
2023-04-02T17:54:16.204Z,10.48
2023-04-02T17:56:56.069Z,10.68
2023-04-02T17:59:33.045Z,9.85
2023-04-02T18:02:10.489Z,7.45
2023-04-02T18:04:44.489Z,7.90
2023-04-02T18:07:22.657Z,11.75
2023-04-02T18:09:57.430Z,10.30
2023-04-02T18:12:34.624Z,10.93
2023-04-02T18:15:12.371Z,12.90
2023-04-02T18:17:49.199Z,14.98
2023-04-02T18:20:27.705Z,11.88
2023-04-02T18:23:04.027Z,14.13
2023-04-02T18:25:54.442Z,10.80
2023-04-02T18:28:33.854Z,9.35
2023-04-02T18:38:37.499Z,10.05
2023-04-02T18:41:13.993Z,8.32
2023-04-02T18:43:50.014Z,12.10
2023-04-02T18:46:23.207Z,14.07
2023-04-02T18:48:56.947Z,10.30
2023-04-02T18:51:27.962Z,7.13
2023-04-02T18:54:04.470Z,10.52
2023-04-02T18:56:34.934Z,12.43
2023-04-02T18:59:09.241Z,9.23
2023-04-02T19:04:13.697Z,13.63
2023-04-02T19:07:03.464Z,12.43
2023-04-02T19:09:37.841Z,10.63
2023-04-02T19:12:10.244Z,11.93
2023-04-02T19:14:39.923Z,12.98
2023-04-02T19:17:12.834Z,13.80
2023-04-02T19:19:46.304Z,10.38
2023-04-02T19:22:18.923Z,11.27
2023-04-02T19:25:08.020Z,15.50
2023-04-02T19:27:48.222Z,13.32
2023-04-02T19:30:35.084Z,13.73
2023-04-02T19:33:08.277Z,12.10
2023-04-02T19:35:39.871Z,10.63
2023-04-02T19:38:13.801Z,7.13
2023-04-02T19:40:46.390Z,11.80
2023-04-02T19:43:18.698Z,14.77
2023-04-02T19:45:49.422Z,9.85
2023-04-02T19:48:21.896Z,10.63
2023-04-02T19:50:53.558Z,12.98
2023-04-02T19:53:23.243Z,7.63
2023-04-02T19:55:53.655Z,9.77
2023-04-02T19:58:30.302Z,10.63
2023-04-02T20:01:00.814Z,8.70
2023-04-02T20:03:31.588Z,8.63
2023-04-02T20:06:01.518Z,4.32
2023-04-02T20:08:31.507Z,7.53
2023-04-02T20:11:01.854Z,4.80
2023-04-02T20:13:34.188Z,8.40
2023-04-02T20:16:04.394Z,4.28
2023-04-02T20:18:34.355Z,8.52
2023-04-02T20:21:06.941Z,8.18
2023-04-02T20:23:36.760Z,11.50
2023-04-02T20:26:07.267Z,7.20
2023-04-02T20:28:39.574Z,5.95
2023-04-02T20:31:11.361Z,7.28
2023-04-02T20:33:41.612Z,4.95
2023-04-02T20:36:13.098Z,1.98
2023-04-02T20:38:43.536Z,6.22
2023-04-02T20:41:15.807Z,6.47
2023-04-02T20:43:48.082Z,7.32
2023-04-02T20:46:17.846Z,6.93
2023-04-02T20:48:47.760Z,10.63
2023-04-02T20:51:18.095Z,8.52
2023-04-02T20:53:47.965Z,10.40
2023-04-02T20:56:19.629Z,8.45
2023-04-02T20:58:52.042Z,7.93
2023-04-02T21:01:22.632Z,7.30
2023-04-02T21:03:52.795Z,6.03
2023-04-02T21:06:23.430Z,8.15
2023-04-02T21:08:53.454Z,5.78
2023-04-02T21:11:23.217Z,7.10
2023-04-02T21:13:55.585Z,6.43
2023-04-02T21:16:28.515Z,9.10
2023-04-02T21:18:59.207Z,10.60
2023-04-02T21:21:28.993Z,4.60
2023-04-02T21:23:59.527Z,11.05
2023-04-02T21:26:30.650Z,8.43
2023-04-02T21:29:04.208Z,8.63
2023-04-02T21:31:36.809Z,7.22
2023-04-02T21:34:07.200Z,7.97
2023-04-02T21:36:38.049Z,7.65
2023-04-02T21:39:09.154Z,11.20
2023-04-02T21:41:40.312Z,6.25
2023-04-02T21:44:15.855Z,9.07
2023-04-02T21:46:46.347Z,6.28
2023-04-02T21:49:17.698Z,6.57
2023-04-02T21:51:49.206Z,7.13
2023-04-02T21:54:19.031Z,5.63
2023-04-02T21:56:49.309Z,8.15
2023-04-02T21:59:21.967Z,8.45
2023-04-02T22:01:52.650Z,5.47
2023-04-02T22:04:23.384Z,10.43
2023-04-02T22:06:53.637Z,8.43
2023-04-02T22:09:24.596Z,9.85
2023-04-02T22:11:55.737Z,10.93
2023-04-02T22:14:28.028Z,6.88
2023-04-02T22:16:59.119Z,9.40
2023-04-02T22:19:29.457Z,9.50
2023-04-02T22:21:59.370Z,5.82
2023-04-02T22:24:29.055Z,8.43
2023-04-02T22:26:58.795Z,6.10
2023-04-02T22:29:31.190Z,8.10
2023-04-02T22:32:01.031Z,5.90
2023-04-02T22:34:30.921Z,5.15
2023-04-02T22:37:00.680Z,6.00
2023-04-02T22:39:30.473Z,5.15
2023-04-02T22:42:00.144Z,7.88
2023-04-02T22:44:32.486Z,10.65
2023-04-02T22:47:02.173Z,7.43
2023-04-02T22:49:32.052Z,9.77
2023-04-02T22:52:01.849Z,4.80
2023-04-02T22:54:31.548Z,5.90
2023-04-02T22:57:01.462Z,8.00
2023-04-02T22:59:33.775Z,10.23
2023-04-02T23:02:03.614Z,8.70
2023-04-02T23:04:33.419Z,6.03
2023-04-02T23:07:03.129Z,9.45
2023-04-02T23:09:32.956Z,4.90
2023-04-02T23:12:02.629Z,9.73
2023-04-02T23:14:34.900Z,6.20
2023-04-02T23:17:04.564Z,4.00
2023-04-02T23:19:34.225Z,4.38
2023-04-02T23:22:03.902Z,5.85
2023-04-02T23:24:33.643Z,5.45
2023-04-02T23:27:03.383Z,4.97
2023-04-02T23:29:35.695Z,5.88
2023-04-02T23:32:05.391Z,8.93
2023-04-02T23:34:35.083Z,3.38
2023-04-02T23:37:04.776Z,5.80
2023-04-02T23:39:34.457Z,4.78
2023-04-02T23:42:04.146Z,8.50
2023-04-02T23:44:36.625Z,5.05
2023-04-02T23:47:06.906Z,7.05
2023-04-02T23:49:36.950Z,6.47
2023-04-02T23:52:06.659Z,11.95
2023-04-02T23:54:36.372Z,10.13
2023-04-02T23:57:06.165Z,7.75
2023-04-02T23:59:38.427Z,7.65
